Time;durP1;ratioP1;P1;durP2;ratioP2;P2;SDS_P1;SDS_P2;PMS_P1;PMS_P2;Temp;Humidity;BMP_temperature;BMP_pressure;BME280_temperature;BME280_humidity;BME280_pressure;Samples;Min_cycle;Max_cycle;Signal;HPM_P1;HPM_P2
2022/09/13 00:01:27;;;;;;;;;;;;;;;27.48;nan;100488.34;5053526;28;1981;-41
2022/09/13 00:03:54;;;;;;;;;;;;;;;27.41;nan;100476.56;5053534;28;800;-41
2022/09/13 00:06:21;;;;;;;;;;;;;;;27.37;nan;100466.31;5053091;28;1210;-41
2022/09/13 00:08:49;;;;;;;;;;;;;;;27.39;nan;100465.16;5053388;28;890;-42
2022/09/13 00:11:17;;;;;;;;;;;;;;;27.42;nan;100464.88;5053481;28;1283;-42
2022/09/13 00:13:44;;;;;;;;;;;;;;;27.40;nan;100463.31;5053145;28;886;-42
2022/09/13 00:16:12;;;;;;;;;;;;;;;27.33;nan;100463.06;5053157;28;1361;-42
2022/09/13 00:18:39;;;;;;;;;;;;;;;27.28;nan;100459.19;5053155;28;770;-42
2022/09/13 00:21:08;;;;;;;;;;;;;;;27.37;nan;100451.09;5053182;28;1287;-42
2022/09/13 00:23:35;;;;;;;;;;;;;;;27.32;nan;100445.38;5052750;28;1910;-42
2022/09/13 00:26:03;;;;;;;;;;;;;;;27.29;nan;100440.31;5053078;28;1292;-42
2022/09/13 00:28:29;;;;;;;;;;;;;;;27.22;nan;100436.56;5052889;28;717;-43
2022/09/13 00:31:00;;;;;;;;;;;;;;;27.19;nan;100436.84;5053281;28;1295;-43
2022/09/13 00:33:27;;;;;;;;;;;;;;;27.14;nan;100437.31;5052846;28;765;-39
2022/09/13 00:35:54;;;;;;;;;;;;;;;27.08;nan;100432.53;5052964;28;1236;-42
2022/09/13 00:38:20;;;;;;;;;;;;;;;27.09;nan;100425.34;5052837;28;723;-43
2022/09/13 00:40:47;;;;;;;;;;;;;;;27.06;nan;100431.84;5052979;28;1221;-40
2022/09/13 00:43:18;;;;;;;;;;;;;;;27.03;nan;100442.00;5051761;28;1975;-41
2022/09/13 00:45:46;;;;;;;;;;;;;;;27.06;nan;100449.72;5052881;28;1213;-42
2022/09/13 00:48:19;;;;;;;;;;;;;;;27.09;nan;100465.47;5052737;28;1569;-42
2022/09/13 00:50:54;;;;;;;;;;;;;;;27.04;nan;100470.41;5053182;28;1310;-40
2022/09/13 00:53:24;;;;;;;;;;;;;;;27.09;nan;100476.16;5052640;28;719;-40
2022/09/13 00:55:56;;;;;;;;;;;;;;;26.98;nan;100471.00;5052811;28;1270;-39
2022/09/13 00:58:30;;;;;;;;;;;;;;;26.99;nan;100462.81;5051536;28;1018;-42
2022/09/13 01:00:58;;;;;;;;;;;;;;;26.98;nan;100473.69;5055881;28;1351;-43
2022/09/13 01:03:27;;;;;;;;;;;;;;;27.03;nan;100474.91;5056820;28;1977;-42
2022/09/13 01:05:59;;;;;;;;;;;;;;;27.04;nan;100484.63;5056974;28;1211;-42
2022/09/13 01:08:30;;;;;;;;;;;;;;;26.98;nan;100485.22;5056678;28;812;-42
2022/09/13 01:10:58;;;;;;;;;;;;;;;26.98;nan;100485.22;5056891;28;1221;-43
2022/09/13 01:13:27;;;;;;;;;;;;;;;27.00;nan;100488.56;5056680;28;1249;-43
2022/09/13 01:15:53;;;;;;;;;;;;;;;26.97;nan;100488.03;5055204;28;1312;-42
2022/09/13 01:18:20;;;;;;;;;;;;;;;27.02;nan;100488.44;5056409;28;804;-42
2022/09/13 01:20:53;;;;;;;;;;;;;;;27.04;nan;100483.78;5056567;28;1226;-41
2022/09/13 01:23:37;;;;;;;;;;;;;;;27.03;nan;100476.75;5056307;28;1970;-42
2022/09/13 01:26:11;;;;;;;;;;;;;;;27.07;nan;100484.34;5056676;28;1355;-42
2022/09/13 01:28:41;;;;;;;;;;;;;;;27.06;nan;100484.47;5056373;28;1007;-40
2022/09/13 01:31:18;;;;;;;;;;;;;;;27.07;nan;100476.31;5056561;28;1232;-42
2022/09/13 01:34:03;;;;;;;;;;;;;;;27.06;nan;100473.78;5056527;28;669;-42
2022/09/13 01:36:32;;;;;;;;;;;;;;;26.99;nan;100472.69;5056456;28;1331;-42
2022/09/13 01:39:07;;;;;;;;;;;;;;;27.00;nan;100456.50;5056015;28;745;-42
2022/09/13 01:41:41;;;;;;;;;;;;;;;27.00;nan;100451.16;5056536;28;1172;-41
2022/09/13 01:44:24;;;;;;;;;;;;;;;27.00;nan;100428.91;5055771;28;1910;-41
2022/09/13 01:46:57;;;;;;;;;;;;;;;27.02;nan;100416.28;5055914;28;676;-41
2022/09/13 01:49:27;;;;;;;;;;;;;;;27.00;nan;100412.88;5055636;28;1236;-42
2022/09/13 01:51:58;;;;;;;;;;;;;;;27.03;nan;100409.91;5055174;28;762;-42
2022/09/13 01:54:40;;;;;;;;;;;;;;;27.02;nan;100405.56;5087894;28;1280;-41
2022/09/13 01:57:25;;;;;;;;;;;;;;;26.88;nan;100403.38;5055796;28;747;-42
2022/09/13 01:59:54;;;;;;;;;;;;;;;26.94;nan;100403.63;5055817;28;1553;-41
2022/09/13 02:02:34;;;;;;;;;;;;;;;26.89;nan;100400.56;5055915;28;1902;-40
2022/09/13 02:05:04;;;;;;;;;;;;;;;26.86;nan;100387.50;5055974;28;1352;-40
2022/09/13 02:07:37;;;;;;;;;;;;;;;26.84;nan;100392.13;5056304;28;937;-41
2022/09/13 02:10:17;;;;;;;;;;;;;;;26.83;nan;100386.97;5055541;28;1292;-41
2022/09/13 02:12:46;;;;;;;;;;;;;;;26.82;nan;100403.97;5055501;28;699;-42
2022/09/13 02:15:18;;;;;;;;;;;;;;;26.82;nan;100409.31;5055447;28;1199;-41
2022/09/13 02:17:55;;;;;;;;;;;;;;;26.80;nan;100401.47;5055526;28;680;-42
2022/09/13 02:20:22;;;;;;;;;;;;;;;26.80;nan;100392.59;5055484;28;1276;-42
2022/09/13 02:22:53;;;;;;;;;;;;;;;26.75;nan;100386.84;5055956;28;1902;-41
2022/09/13 02:25:21;;;;;;;;;;;;;;;26.79;nan;100382.84;5055833;28;1355;-42
2022/09/13 02:27:52;;;;;;;;;;;;;;;26.73;nan;100394.97;5055169;28;713;-41
2022/09/13 02:30:21;;;;;;;;;;;;;;;26.76;nan;100396.50;5055313;28;1288;-42
2022/09/13 02:32:56;;;;;;;;;;;;;;;26.78;nan;100419.41;5055162;28;741;-42
2022/09/13 02:35:26;;;;;;;;;;;;;;;26.76;nan;100416.06;5055370;28;1201;-42
2022/09/13 02:37:59;;;;;;;;;;;;;;;26.69;nan;100414.94;5055153;28;636;-42
2022/09/13 02:40:29;;;;;;;;;;;;;;;26.76;nan;100399.19;5055317;28;1280;-41
2022/09/13 02:43:09;;;;;;;;;;;;;;;26.77;nan;100390.19;5055154;28;1898;-42
2022/09/13 02:45:56;;;;;;;;;;;;;;;26.77;nan;100390.19;5055239;28;1268;-43
2022/09/13 02:48:43;;;;;;;;;;;;;;;26.79;nan;100385.53;5054674;28;1661;-42
2022/09/13 02:51:17;;;;;;;;;;;;;;;26.75;nan;100398.34;5058079;28;1835;-41
2022/09/13 02:53:55;;;;;;;;;;;;;;;26.78;nan;100379.34;5055210;28;945;-41
2022/09/13 02:56:32;;;;;;;;;;;;;;;26.74;nan;100385.13;5055169;28;1402;-42
2022/09/13 02:59:11;;;;;;;;;;;;;;;26.77;nan;100384.84;5054304;28;977;-41
2022/09/13 03:01:39;;;;;;;;;;;;;;;26.74;nan;100380.63;5055205;28;1029;-43
2022/09/13 03:04:06;;;;;;;;;;;;;;;26.71;nan;100369.41;5054634;28;1982;-42
2022/09/13 03:06:33;;;;;;;;;;;;;;;26.71;nan;100364.91;5055113;28;1253;-41
2022/09/13 03:09:02;;;;;;;;;;;;;;;26.74;nan;100371.78;5054836;28;870;-42
2022/09/13 03:11:29;;;;;;;;;;;;;;;26.70;nan;100375.72;5054907;28;1256;-42
2022/09/13 03:14:05;;;;;;;;;;;;;;;26.70;nan;100373.06;5054642;28;737;-43
2022/09/13 03:16:59;;;;;;;;;;;;;;;26.75;nan;100371.63;5054226;28;1648;-41
2022/09/13 03:19:44;;;;;;;;;;;;;;;26.71;nan;100369.41;5054541;28;1316;-42
2022/09/13 03:22:29;;;;;;;;;;;;;;;26.69;nan;100376.72;5053685;28;829;-42
2022/09/13 03:25:11;;;;;;;;;;;;;;;26.83;nan;100384.28;5054198;28;1205;-42
2022/09/13 03:28:14;;;;;;;;;;;;;;;26.74;nan;100382.47;5054201;28;878;-43
2022/09/13 03:30:47;;;;;;;;;;;;;;;26.68;nan;100380.38;5071685;28;1300;-42
2022/09/13 03:33:27;;;;;;;;;;;;;;;26.73;nan;100392.31;5056988;28;1029;-41
2022/09/13 03:36:01;;;;;;;;;;;;;;;26.71;nan;100391.63;5054362;28;1332;-41
2022/09/13 03:38:32;;;;;;;;;;;;;;;26.70;nan;100379.25;5053017;28;730;-41
2022/09/13 03:41:01;;;;;;;;;;;;;;;26.66;nan;100375.16;5054356;28;1374;-41
2022/09/13 03:43:34;;;;;;;;;;;;;;;26.61;nan;100377.44;5052957;28;1906;-42
2022/09/13 03:46:04;;;;;;;;;;;;;;;26.61;nan;100389.00;5054435;28;1340;-42
2022/09/13 03:48:34;;;;;;;;;;;;;;;26.57;nan;100390.25;5053751;28;1385;-41
2022/09/13 03:51:01;;;;;;;;;;;;;;;26.52;nan;100387.19;5054331;28;1367;-42
2022/09/13 03:53:29;;;;;;;;;;;;;;;26.61;nan;100394.31;5053788;28;819;-42
2022/09/13 03:55:56;;;;;;;;;;;;;;;26.60;nan;100392.63;5054029;28;1217;-41
2022/09/13 03:58:24;;;;;;;;;;;;;;;26.58;nan;100393.78;5052889;28;1246;-41
2022/09/13 04:00:53;;;;;;;;;;;;;;;26.57;nan;100400.94;5053991;28;1209;-42
2022/09/13 04:03:20;;;;;;;;;;;;;;;26.60;nan;100405.16;5053557;28;1973;-43
2022/09/13 04:05:46;;;;;;;;;;;;;;;26.51;nan;100409.53;5053643;28;1237;-43
2022/09/13 04:08:13;;;;;;;;;;;;;;;26.45;nan;100407.44;5053468;28;746;-43
2022/09/13 04:10:40;;;;;;;;;;;;;;;26.51;nan;100406.88;5053723;28;1316;-42
2022/09/13 04:13:07;;;;;;;;;;;;;;;26.54;nan;100411.06;5053839;28;992;-43
2022/09/13 04:15:34;;;;;;;;;;;;;;;26.65;nan;100415.41;5053540;28;1294;-43
2022/09/13 04:18:01;;;;;;;;;;;;;;;26.51;nan;100409.53;5053270;28;824;-43
2022/09/13 04:20:28;;;;;;;;;;;;;;;26.48;nan;100406.31;5053626;28;1205;-42
2022/09/13 04:22:56;;;;;;;;;;;;;;;26.50;nan;100399.00;5053058;28;1969;-43
2022/09/13 04:25:23;;;;;;;;;;;;;;;26.46;nan;100400.28;5053396;28;1302;-42
2022/09/13 04:27:53;;;;;;;;;;;;;;;26.51;nan;100398.00;5053303;28;904;-43
2022/09/13 04:30:20;;;;;;;;;;;;;;;26.51;nan;100396.19;5053264;28;1221;-42
2022/09/13 04:32:47;;;;;;;;;;;;;;;26.55;nan;100394.91;5052955;28;793;-42
2022/09/13 04:35:16;;;;;;;;;;;;;;;26.56;nan;100401.09;5053036;28;1214;-41
2022/09/13 04:37:43;;;;;;;;;;;;;;;26.67;nan;100400.06;5053012;28;900;-43
2022/09/13 04:40:10;;;;;;;;;;;;;;;26.70;nan;100399.78;5053141;28;1220;-42
2022/09/13 04:42:37;;;;;;;;;;;;;;;26.68;nan;100396.41;5052951;28;815;-43
2022/09/13 04:45:05;;;;;;;;;;;;;;;26.57;nan;100398.28;5051489;28;1214;-42
2022/09/13 04:47:32;;;;;;;;;;;;;;;26.53;nan;100396.91;5084265;28;775;-43
2022/09/13 04:49:58;;;;;;;;;;;;;;;26.54;nan;100393.22;5052509;28;1237;-43
2022/09/13 04:52:25;;;;;;;;;;;;;;;26.53;nan;100390.72;5052099;28;1100;-43
2022/09/13 04:54:52;;;;;;;;;;;;;;;26.48;nan;100393.81;5052245;28;1217;-41
2022/09/13 04:57:18;;;;;;;;;;;;;;;26.43;nan;100393.41;5052544;28;731;-42
2022/09/13 04:59:45;;;;;;;;;;;;;;;26.46;nan;100402.94;5052323;28;1476;-41
2022/09/13 05:02:12;;;;;;;;;;;;;;;26.36;nan;100408.31;5052586;28;1111;-42
2022/09/13 05:04:39;;;;;;;;;;;;;;;26.34;nan;100412.97;5052687;28;1910;-43
2022/09/13 05:07:05;;;;;;;;;;;;;;;26.33;nan;100408.59;5052614;28;758;-43
2022/09/13 05:09:32;;;;;;;;;;;;;;;26.39;nan;100404.50;5053049;28;1321;-42
2022/09/13 05:11:59;;;;;;;;;;;;;;;26.44;nan;100404.94;5052748;28;949;-43
2022/09/13 05:14:25;;;;;;;;;;;;;;;26.41;nan;100411.41;5052608;28;1190;-43
2022/09/13 05:16:52;;;;;;;;;;;;;;;26.48;nan;100414.31;5048638;28;1645;-43
2022/09/13 05:19:19;;;;;;;;;;;;;;;26.45;nan;100415.47;5046972;28;1252;-43
2022/09/13 05:21:46;;;;;;;;;;;;;;;26.44;nan;100415.63;5042928;28;1118;-41
2022/09/13 05:24:12;;;;;;;;;;;;;;;26.39;nan;100409.84;5051980;28;1906;-42
2022/09/13 05:26:39;;;;;;;;;;;;;;;26.36;nan;100423.50;5051323;28;1027;-41
2022/09/13 05:29:06;;;;;;;;;;;;;;;26.32;nan;100424.78;5052628;28;1164;-43
2022/09/13 05:31:37;;;;;;;;;;;;;;;26.38;nan;100417.03;5052512;28;1379;-40
2022/09/13 05:34:06;;;;;;;;;;;;;;;26.31;nan;100431.09;5052201;28;965;-41
2022/09/13 05:36:33;;;;;;;;;;;;;;;26.33;nan;100421.94;5052335;28;1414;-42
2022/09/13 05:38:59;;;;;;;;;;;;;;;26.30;nan;100422.25;5051912;28;932;-43
2022/09/13 05:41:47;;;;;;;;;;;;;;;26.29;nan;100425.91;5052262;28;2123;-43
2022/09/13 05:44:13;;;;;;;;;;;;;;;26.30;nan;100424.91;5052318;28;1902;-42
2022/09/13 05:46:41;;;;;;;;;;;;;;;26.28;nan;100424.22;5054566;28;1024;-43
2022/09/13 05:49:08;;;;;;;;;;;;;;;26.29;nan;100427.75;5055728;28;1467;-41
2022/09/13 05:51:35;;;;;;;;;;;;;;;26.25;nan;100426.34;5055969;28;1287;-42
2022/09/13 05:54:02;;;;;;;;;;;;;;;26.18;nan;100431.41;5055447;28;901;-42
2022/09/13 05:56:30;;;;;;;;;;;;;;;26.25;nan;100432.53;5055475;28;1318;-40
2022/09/13 05:58:57;;;;;;;;;;;;;;;26.17;nan;100429.72;5055651;28;893;-43
2022/09/13 06:01:25;;;;;;;;;;;;;;;26.30;nan;100434.75;5055525;28;1197;-43
2022/09/13 06:03:54;;;;;;;;;;;;;;;26.37;nan;100436.72;5055416;28;1993;-41
2022/09/13 06:06:21;;;;;;;;;;;;;;;26.31;nan;100428.44;5055341;28;1209;-41
2022/09/13 06:08:52;;;;;;;;;;;;;;;26.38;nan;100418.88;5052655;28;1620;-42
2022/09/13 06:11:19;;;;;;;;;;;;;;;26.36;nan;100424.34;5047599;28;1340;-42
2022/09/13 06:13:46;;;;;;;;;;;;;;;26.32;nan;100433.63;5054094;28;761;-42
2022/09/13 06:16:13;;;;;;;;;;;;;;;26.28;nan;100432.22;5054374;28;1308;-42
2022/09/13 06:18:40;;;;;;;;;;;;;;;26.29;nan;100444.59;5054647;28;913;-38
2022/09/13 06:21:10;;;;;;;;;;;;;;;26.32;nan;100443.47;5052949;28;1283;-41
2022/09/13 06:23:36;;;;;;;;;;;;;;;26.32;nan;100440.81;5054053;28;1985;-41
2022/09/13 06:26:05;;;;;;;;;;;;;;;26.39;nan;100441.91;5053886;28;1201;-41
2022/09/13 06:28:32;;;;;;;;;;;;;;;26.40;nan;100444.44;5053077;28;1038;-41
2022/09/13 06:31:05;;;;;;;;;;;;;;;26.59;nan;100436.38;5054327;28;1351;-42
2022/09/13 06:33:32;;;;;;;;;;;;;;;26.52;nan;100445.94;5054272;28;982;-43
2022/09/13 06:36:01;;;;;;;;;;;;;;;26.54;nan;100460.00;5068801;28;1236;-43
2022/09/13 06:38:28;;;;;;;;;;;;;;;26.56;nan;100449.19;5053917;28;957;-43
2022/09/13 06:40:58;;;;;;;;;;;;;;;26.48;nan;100449.88;5053705;28;1308;-42
2022/09/13 06:43:25;;;;;;;;;;;;;;;26.61;nan;100442.41;5053748;28;1981;-43
2022/09/13 06:45:52;;;;;;;;;;;;;;;26.63;nan;100448.44;5053405;28;1233;-43
2022/09/13 06:48:19;;;;;;;;;;;;;;;26.75;nan;100456.31;5042841;28;1573;-42
2022/09/13 06:50:46;;;;;;;;;;;;;;;26.55;nan;100459.03;5047986;28;1635;-41
2022/09/13 06:53:13;;;;;;;;;;;;;;;26.60;nan;100471.94;5051365;28;1457;-44
2022/09/13 06:55:40;;;;;;;;;;;;;;;26.63;nan;100469.81;5047989;28;1320;-41
2022/09/13 06:58:06;;;;;;;;;;;;;;;26.69;nan;100472.91;5053956;28;790;-41
2022/09/13 07:00:33;;;;;;;;;;;;;;;26.64;nan;100476.00;5045469;28;1478;-41
2022/09/13 07:03:00;;;;;;;;;;;;;;;26.86;nan;100470.34;5051304;28;1138;-43
2022/09/13 07:05:26;;;;;;;;;;;;;;;26.81;nan;100472.59;5051817;28;1910;-42
2022/09/13 07:07:53;;;;;;;;;;;;;;;26.69;nan;100468.38;5034035;28;737;-41
2022/09/13 07:10:20;;;;;;;;;;;;;;;26.78;nan;100472.03;5033617;28;1264;-42
2022/09/13 07:12:47;;;;;;;;;;;;;;;26.78;nan;100472.03;5039050;28;1234;-41
2022/09/13 07:15:14;;;;;;;;;;;;;;;26.88;nan;100468.38;5049584;28;1378;-41
2022/09/13 07:17:40;;;;;;;;;;;;;;;26.84;nan;100466.16;5052747;28;1238;-41
2022/09/13 07:20:07;;;;;;;;;;;;;;;26.89;nan;100455.84;5052945;28;1260;-42
2022/09/13 07:22:34;;;;;;;;;;;;;;;26.92;nan;100464.41;5052771;28;1282;-40
2022/09/13 07:25:01;;;;;;;;;;;;;;;26.94;nan;100474.94;5053565;28;1907;-42
2022/09/13 07:27:27;;;;;;;;;;;;;;;26.83;nan;100472.47;5052071;28;1035;-43
2022/09/13 07:29:54;;;;;;;;;;;;;;;26.82;nan;100468.09;5048401;28;1324;-42
2022/09/13 07:32:21;;;;;;;;;;;;;;;26.92;nan;100463.56;5049799;28;1387;-43
2022/09/13 07:34:48;;;;;;;;;;;;;;;26.99;nan;100462.00;5039303;28;1515;-42
2022/09/13 07:37:15;;;;;;;;;;;;;;;27.02;nan;100465.19;5047833;28;958;-43
2022/09/13 07:39:41;;;;;;;;;;;;;;;27.07;nan;100467.44;5056762;28;1362;-42
2022/09/13 07:42:08;;;;;;;;;;;;;;;27.10;nan;100472.50;5057556;28;1101;-40
2022/09/13 07:44:35;;;;;;;;;;;;;;;27.17;nan;100481.63;5052561;28;1910;-43
2022/09/13 07:47:02;;;;;;;;;;;;;;;27.29;nan;100476.91;5052608;28;1071;-42
2022/09/13 07:49:28;;;;;;;;;;;;;;;27.37;nan;100485.03;5052767;28;1471;-43
2022/09/13 07:51:55;;;;;;;;;;;;;;;27.44;nan;100491.50;5052493;28;1000;-43
2022/09/13 07:54:22;;;;;;;;;;;;;;;27.50;nan;100502.44;5052589;28;1233;-42
2022/09/13 07:56:50;;;;;;;;;;;;;;;27.34;nan;100502.22;5048839;28;1520;-41
2022/09/13 07:59:18;;;;;;;;;;;;;;;27.30;nan;100506.16;5052048;28;1343;-42
2022/09/13 08:01:49;;;;;;;;;;;;;;;27.40;nan;100509.66;5052020;28;917;-40
2022/09/13 08:04:17;;;;;;;;;;;;;;;27.32;nan;100514.91;5058424;28;1968;-44
2022/09/13 08:06:45;;;;;;;;;;;;;;;27.23;nan;100521.13;5061831;28;1010;-42
2022/09/13 08:09:12;;;;;;;;;;;;;;;27.24;nan;100522.00;5050236;28;1359;-43
2022/09/13 08:11:40;;;;;;;;;;;;;;;27.32;nan;100522.09;5033364;28;1061;-42
2022/09/13 08:14:09;;;;;;;;;;;;;;;27.29;nan;100531.25;5032514;28;825;-42
2022/09/13 08:16:38;;;;;;;;;;;;;;;27.36;nan;100523.47;5033417;28;891;-44
2022/09/13 08:19:06;;;;;;;;;;;;;;;27.38;nan;100527.69;5033305;28;917;-41
2022/09/13 08:21:34;;;;;;;;;;;;;;;27.37;nan;100517.13;5033203;28;1324;-43
2022/09/13 08:24:01;;;;;;;;;;;;;;;27.30;nan;100534.78;5031506;28;1902;-43
2022/09/13 08:26:28;;;;;;;;;;;;;;;27.34;nan;100536.97;5033567;28;1209;-44
2022/09/13 08:28:56;;;;;;;;;;;;;;;27.43;nan;100560.19;5032016;28;878;-45
2022/09/13 08:31:24;;;;;;;;;;;;;;;27.04;nan;100556.81;5031908;28;1347;-45
2022/09/13 08:33:51;;;;;;;;;;;;;;;27.01;nan;100556.25;5064748;28;886;-45
2022/09/13 08:36:18;;;;;;;;;;;;;;;27.09;nan;100559.88;5069723;28;1225;-45
2022/09/13 08:38:49;;;;;;;;;;;;;;;27.00;nan;100541.19;5072877;28;741;-45
2022/09/13 08:41:22;;;;;;;;;;;;;;;26.94;nan;100536.41;5073196;28;1260;-45
2022/09/13 08:44:07;;;;;;;;;;;;;;;26.87;nan;100519.31;5071718;28;1902;-45
2022/09/13 08:46:37;;;;;;;;;;;;;;;26.87;nan;100500.59;5052754;28;1408;-44
2022/09/13 08:49:07;;;;;;;;;;;;;;;26.94;nan;100478.47;5058761;28;1435;-44
2022/09/13 08:51:51;;;;;;;;;;;;;;;27.09;nan;100450.25;5072485;28;1339;-44
2022/09/13 08:54:19;;;;;;;;;;;;;;;27.02;nan;100434.97;5072105;28;1311;-45
2022/09/13 08:56:55;;;;;;;;;;;;;;;26.96;nan;100406.16;5072567;28;937;-44
2022/09/13 08:59:30;;;;;;;;;;;;;;;27.14;nan;100373.16;5070936;28;1315;-45
2022/09/13 09:02:06;;;;;;;;;;;;;;;27.10;nan;100349.53;5072061;28;687;-45
2022/09/13 09:04:42;;;;;;;;;;;;;;;27.18;nan;100349.59;5070995;28;1910;-46
2022/09/13 09:07:38;;;;;;;;;;;;;;;27.20;nan;100357.47;5072207;28;886;-46
2022/09/13 09:10:16;;;;;;;;;;;;;;;27.19;nan;100359.31;5075761;28;1457;-46
2022/09/13 09:12:51;;;;;;;;;;;;;;;27.20;nan;100366.34;5071843;28;1198;-46
2022/09/13 09:15:23;;;;;;;;;;;;;;;27.33;nan;100372.16;5072083;28;1296;-46
2022/09/13 09:17:55;;;;;;;;;;;;;;;27.39;nan;100382.25;5070982;28;648;-45
2022/09/13 09:20:27;;;;;;;;;;;;;;;27.50;nan;100387.41;5072591;28;1427;-45
2022/09/13 09:22:54;;;;;;;;;;;;;;;27.57;nan;100387.66;5076185;28;851;-45
2022/09/13 09:25:22;;;;;;;;;;;;;;;27.55;nan;100389.63;5076088;28;1910;-45
2022/09/13 09:27:50;;;;;;;;;;;;;;;27.56;nan;100394.00;5075934;28;732;-45
2022/09/13 09:30:17;;;;;;;;;;;;;;;27.64;nan;100408.28;5074564;28;1229;-42
2022/09/13 09:33:03;;;;;;;;;;;;;;;27.69;nan;100410.50;5075758;28;866;-40
2022/09/13 09:35:41;;;;;;;;;;;;;;;27.66;nan;100406.28;5075611;28;1177;-43
2022/09/13 09:38:20;;;;;;;;;;;;;;;27.67;nan;100429.38;5075737;28;725;-39
2022/09/13 09:40:47;;;;;;;;;;;;;;;27.71;nan;100450.47;5076073;28;1209;-38
2022/09/13 09:43:19;;;;;;;;;;;;;;;27.71;nan;100462.03;5075659;28;750;-41
2022/09/13 09:45:46;;;;;;;;;;;;;;;27.71;nan;100461.19;5090910;28;1973;-37
2022/09/13 09:48:15;;;;;;;;;;;;;;;27.73;nan;100459.19;5075334;28;1466;-42
2022/09/13 09:50:49;;;;;;;;;;;;;;;27.72;nan;100468.22;5075868;28;1266;-42
2022/09/13 09:53:23;;;;;;;;;;;;;;;27.75;nan;100479.47;5075941;28;668;-42
2022/09/13 09:56:11;;;;;;;;;;;;;;;27.80;nan;100492.38;5074452;28;1307;-40
2022/09/13 09:58:39;;;;;;;;;;;;;;;27.82;nan;100496.59;5078032;28;1053;-39
2022/09/13 10:01:32;;;;;;;;;;;;;;;27.83;nan;100489.41;5075631;28;1595;-40
2022/09/13 10:04:07;;;;;;;;;;;;;;;27.83;nan;100490.25;5059357;28;2346;-42
2022/09/13 10:06:35;;;;;;;;;;;;;;;27.87;nan;100498.84;5055255;28;1629;-41
2022/09/13 10:09:08;;;;;;;;;;;;;;;27.92;nan;100502.72;5054336;28;1016;-38
2022/09/13 10:11:38;;;;;;;;;;;;;;;27.94;nan;100498.06;5055514;28;1314;-42
2022/09/13 10:14:05;;;;;;;;;;;;;;;27.97;nan;100502.25;5053702;28;1264;-40
2022/09/13 10:16:31;;;;;;;;;;;;;;;27.99;nan;100492.25;5055389;28;1402;-42
2022/09/13 10:19:21;;;;;;;;;;;;;;;27.99;nan;100490.44;5086435;28;1010;-41
2022/09/13 10:22:01;;;;;;;;;;;;;;;27.97;nan;100478.16;5055220;28;691;-43
2022/09/13 10:24:29;;;;;;;;;;;;;;;28.02;nan;100484.75;5054481;28;1902;-43
2022/09/13 10:26:56;;;;;;;;;;;;;;;28.01;nan;100490.25;5055029;28;886;-40
2022/09/13 10:29:24;;;;;;;;;;;;;;;27.97;nan;100491.53;5054183;28;1363;-40
2022/09/13 10:31:52;;;;;;;;;;;;;;;28.01;nan;100499.13;5054146;28;762;-41
2022/09/13 10:34:21;;;;;;;;;;;;;;;28.10;nan;100503.59;5054463;28;1260;-40
2022/09/13 10:36:59;;;;;;;;;;;;;;;28.16;nan;100489.59;5054604;28;714;-42
2022/09/13 10:39:27;;;;;;;;;;;;;;;28.19;nan;100501.84;5054139;28;1308;-42
2022/09/13 10:42:00;;;;;;;;;;;;;;;28.22;nan;100493.50;5054587;28;740;-40
2022/09/13 10:44:26;;;;;;;;;;;;;;;28.17;nan;100498.47;5054240;28;1902;-41
2022/09/13 10:46:54;;;;;;;;;;;;;;;28.22;nan;100490.81;5053231;28;890;-42
2022/09/13 10:49:39;;;;;;;;;;;;;;;28.26;nan;100484.16;5054394;28;1264;-44
2022/09/13 10:52:25;;;;;;;;;;;;;;;28.30;nan;100477.47;5053899;28;820;-41
2022/09/13 10:54:53;;;;;;;;;;;;;;;28.35;nan;100491.25;5053122;28;1222;-38
2022/09/13 10:57:32;;;;;;;;;;;;;;;28.22;nan;100504.19;5054415;28;747;-35
2022/09/13 10:59:59;;;;;;;;;;;;;;;28.31;nan;100511.31;5052663;28;1217;-43
2022/09/13 11:02:40;;;;;;;;;;;;;;;28.23;nan;100521.97;5054380;28;742;-40
2022/09/13 11:05:17;;;;;;;;;;;;;;;28.40;nan;100522.91;5054364;28;1906;-41
2022/09/13 11:08:03;;;;;;;;;;;;;;;28.39;nan;100505.19;5053384;28;1070;-42
2022/09/13 11:10:37;;;;;;;;;;;;;;;28.34;nan;100502.97;5054119;28;1276;-43
2022/09/13 11:13:39;;;;;;;;;;;;;;;28.41;nan;100498.69;5053930;28;769;-41
2022/09/13 11:16:10;;;;;;;;;;;;;;;28.31;nan;100500.59;5071499;28;1276;-42
2022/09/13 11:18:55;;;;;;;;;;;;;;;28.47;nan;100498.06;5052293;28;929;-41
2022/09/13 11:21:31;;;;;;;;;;;;;;;28.50;nan;100492.38;5054178;28;1301;-41
2022/09/13 11:24:07;;;;;;;;;;;;;;;28.85;nan;100479.91;5038523;28;1616;-37
2022/09/13 11:26:43;;;;;;;;;;;;;;;28.81;nan;100483.91;5049060;28;1942;-35
2022/09/13 11:29:29;;;;;;;;;;;;;;;28.80;nan;100484.88;5049670;28;1319;-39
2022/09/13 11:32:06;;;;;;;;;;;;;;;28.94;nan;100462.88;5041357;28;2021;-45
2022/09/13 11:34:58;;;;;;;;;;;;;;;29.19;nan;100452.06;5047388;28;1378;-44
2022/09/13 11:37:28;;;;;;;;;;;;;;;29.25;nan;100445.25;5049109;28;940;-44
2022/09/13 11:40:03;;;;;;;;;;;;;;;29.43;nan;100451.34;5035821;28;1268;-44
2022/09/13 11:42:54;;;;;;;;;;;;;;;29.54;nan;100455.56;5041665;28;975;-43
2022/09/13 11:45:23;;;;;;;;;;;;;;;29.29;nan;100446.63;5028310;28;1910;-40
2022/09/13 11:48:09;;;;;;;;;;;;;;;29.40;nan;100459.72;5032808;28;1358;-44
2022/09/13 11:50:38;;;;;;;;;;;;;;;29.22;nan;100467.84;5042408;28;1359;-34
2022/09/13 11:53:11;;;;;;;;;;;;;;;29.18;nan;100477.19;5041872;28;1112;-32
2022/09/13 11:55:55;;;;;;;;;;;;;;;29.12;nan;100485.91;5060780;28;1373;-36
2022/09/13 11:58:28;;;;;;;;;;;;;;;29.57;nan;100477.56;5031770;28;878;-34
2022/09/13 12:01:00;;;;;;;;;;;;;;;29.52;nan;100489.75;5029061;28;1407;-33
2022/09/13 12:03:30;;;;;;;;;;;;;;;29.39;nan;100484.88;5036105;28;884;-32
2022/09/13 12:06:00;;;;;;;;;;;;;;;29.84;nan;100481.84;5065697;28;1914;-31
2022/09/13 12:08:34;;;;;;;;;;;;;;;29.53;nan;100486.94;5039346;28;910;-34
2022/09/13 12:11:14;;;;;;;;;;;;;;;29.62;nan;100494.00;5034374;28;1305;-31
2022/09/13 12:13:51;;;;;;;;;;;;;;;29.49;nan;100480.19;5045666;28;1192;-32
2022/09/13 12:16:24;;;;;;;;;;;;;;;29.31;nan;100486.66;5046473;28;1348;-30
2022/09/13 12:18:53;;;;;;;;;;;;;;;29.56;nan;100470.50;5045397;28;1222;-32
2022/09/13 12:21:22;;;;;;;;;;;;;;;29.53;nan;100478.88;5044922;28;1250;-32
2022/09/13 12:23:55;;;;;;;;;;;;;;;29.58;nan;100484.59;5047101;28;1211;-30
2022/09/13 12:26:43;;;;;;;;;;;;;;;29.55;nan;100463.44;5046816;28;1911;-30
2022/09/13 12:29:28;;;;;;;;;;;;;;;29.67;nan;100447.88;5043880;28;1327;-33
2022/09/13 12:31:59;;;;;;;;;;;;;;;29.63;nan;100463.47;5044341;28;1284;-29
2022/09/13 12:34:31;;;;;;;;;;;;;;;29.52;nan;100454.88;5044962;28;1434;-28
2022/09/13 12:37:16;;;;;;;;;;;;;;;29.61;nan;100457.41;5044044;28;1148;-30
2022/09/13 12:39:56;;;;;;;;;;;;;;;29.45;nan;100465.44;5044096;28;1384;-29
2022/09/13 12:42:37;;;;;;;;;;;;;;;29.57;nan;100455.25;5044521;28;1509;-27
2022/09/13 12:45:23;;;;;;;;;;;;;;;29.48;nan;100462.44;5045468;28;1910;-27
2022/09/13 12:47:53;;;;;;;;;;;;;;;29.55;nan;100452.72;5046999;28;1621;-27
2022/09/13 12:50:27;;;;;;;;;;;;;;;29.59;nan;100443.34;5046571;28;1383;-27
2022/09/13 12:53:08;;;;;;;;;;;;;;;29.55;nan;100452.72;5047046;28;1001;-28
2022/09/13 12:55:53;;;;;;;;;;;;;;;29.59;nan;100458.59;5050774;28;1232;-28
2022/09/13 12:58:20;;;;;;;;;;;;;;;29.66;nan;100439.00;5054338;28;1163;-29
2022/09/13 13:01:05;;;;;;;;;;;;;;;29.65;nan;100450.72;5052757;28;1260;-28
2022/09/13 13:03:35;;;;;;;;;;;;;;;29.61;nan;100435.94;5054349;28;1180;-29
2022/09/13 13:06:25;;;;;;;;;;;;;;;29.54;nan;100443.00;5052243;28;1914;-30
2022/09/13 13:08:54;;;;;;;;;;;;;;;29.58;nan;100425.53;5055266;28;1410;-28
2022/09/13 13:11:25;;;;;;;;;;;;;;;29.63;nan;100443.84;5052533;28;1264;-28
2022/09/13 13:14:01;;;;;;;;;;;;;;;29.59;nan;100448.69;5053963;28;1454;-35
2022/09/13 13:16:36;;;;;;;;;;;;;;;29.53;nan;100438.63;5053272;28;1359;-27
2022/09/13 13:19:04;;;;;;;;;;;;;;;29.61;nan;100441.31;5055213;28;1254;-28
2022/09/13 13:21:33;;;;;;;;;;;;;;;29.54;nan;100444.84;5055450;28;1255;-29
2022/09/13 13:24:15;;;;;;;;;;;;;;;29.56;nan;100435.63;5054477;28;1155;-33
2022/09/13 13:26:42;;;;;;;;;;;;;;;29.65;nan;100431.94;5053173;28;1943;-28
2022/09/13 13:29:15;;;;;;;;;;;;;;;29.60;nan;100426.25;5053201;28;1260;-30
2022/09/13 13:32:06;;;;;;;;;;;;;;;29.66;nan;100430.94;5084650;28;1187;-30
2022/09/13 13:34:36;;;;;;;;;;;;;;;29.64;nan;100430.25;5053296;28;1403;-29